Time;durP1;ratioP1;P1;durP2;ratioP2;P2;SDS_P1;SDS_P2;PMS_P1;PMS_P2;Temp;Humidity;BMP_temperature;BMP_pressure;BME280_temperature;BME280_humidity;BME280_pressure;Samples;Min_cycle;Max_cycle;Signal;HPM_P1;HPM_P2
2023/10/25 00:02:05;;;;;;;14.00;8.40;;;11.30;1.00;;;;;;5090770;28;20184;-80
2023/10/25 00:04:30;;;;;;;42.70;9.20;;;11.20;1.00;;;;;;5094401;28;20180;-81
2023/10/25 00:06:56;;;;;;;19.47;7.87;;;11.30;1.00;;;;;;5093067;28;20222;-80
2023/10/25 00:09:22;;;;;;;29.37;8.40;;;11.30;1.00;;;;;;5099825;28;20190;-80
2023/10/25 00:11:47;;;;;;;16.63;9.03;;;11.30;1.00;;;;;;5095223;28;20586;-82
2023/10/25 00:14:13;;;;;;;29.87;8.90;;;11.40;1.00;;;;;;5095174;28;20183;-81
2023/10/25 00:16:39;;;;;;;19.23;8.47;;;11.30;1.00;;;;;;5094548;28;20199;-81
2023/10/25 00:19:04;;;;;;;57.23;9.70;;;11.30;1.00;;;;;;5102760;28;20447;-81
2023/10/25 00:21:30;;;;;;;18.07;9.20;;;11.30;1.00;;;;;;5094192;28;20188;-83
2023/10/25 00:23:55;;;;;;;39.03;9.67;;;13.50;1.00;;;;;;5108884;28;20183;-81
2023/10/25 00:26:21;;;;;;;22.33;9.03;;;11.40;1.00;;;;;;5094571;28;20216;-80
2023/10/25 00:28:46;;;;;;;37.37;9.30;;;11.50;1.00;;;;;;5105917;28;20190;-80
2023/10/25 00:31:12;;;;;;;19.33;8.97;;;11.50;1.00;;;;;;5094929;28;20361;-79
2023/10/25 00:33:37;;;;;;;28.93;9.80;;;11.50;1.00;;;;;;5098910;28;20270;-82
2023/10/25 00:36:03;;;;;;;17.83;9.50;;;11.50;1.00;;;;;;5103935;28;20210;-79
2023/10/25 00:38:29;;;;;;;15.10;8.70;;;11.60;1.00;;;;;;5103278;28;20179;-79
2023/10/25 00:40:54;;;;;;;21.73;9.00;;;11.70;1.00;;;;;;5092020;28;20285;-79
2023/10/25 00:43:21;;;;;;;16.83;9.60;;;11.70;1.00;;;;;;5098091;28;20198;-79
2023/10/25 00:46:13;;;;;;;17.87;8.33;;;11.70;1.00;;;;;;5104910;28;20648;-80
2023/10/25 00:48:44;;;;;;;17.07;8.80;;;11.70;1.00;;;;;;5098664;28;20441;-80
2023/10/25 00:51:10;;;;;;;21.80;9.30;;;11.70;1.00;;;;;;5104646;28;20466;-80
2023/10/25 00:53:40;;;;;;;18.33;9.33;;;11.70;1.00;;;;;;5098935;28;20815;-81
2023/10/25 00:56:07;;;;;;;17.60;9.00;;;11.70;1.00;;;;;;5094373;28;20737;-80
2023/10/25 00:58:33;;;;;;;15.20;8.77;;;11.70;1.00;;;;;;5096915;28;20429;-82
2023/10/25 01:01:00;;;;;;;12.17;7.80;;;11.60;1.00;;;;;;5093003;28;20442;-80
2023/10/25 01:03:25;;;;;;;14.43;8.50;;;11.60;1.00;;;;;;5094720;28;20517;-79
2023/10/25 01:05:51;;;;;;;14.73;8.23;;;11.60;1.00;;;;;;5098596;28;20514;-80
2023/10/25 01:08:20;;;;;;;15.93;8.70;;;11.60;1.00;;;;;;5102965;28;20188;-82
2023/10/25 01:10:50;;;;;;;17.70;9.50;;;11.60;1.00;;;;;;5094216;28;20607;-79
2023/10/25 01:13:17;;;;;;;16.27;8.40;;;11.60;1.00;;;;;;5093794;28;20429;-80
2023/10/25 01:15:42;;;;;;;15.83;8.70;;;11.50;1.00;;;;;;5109976;28;20519;-79
2023/10/25 01:18:08;;;;;;;15.30;9.10;;;11.50;1.00;;;;;;5100240;28;20559;-82
2023/10/25 01:20:35;;;;;;;16.13;9.03;;;11.50;1.00;;;;;;5093906;28;20278;-80
2023/10/25 01:23:00;;;;;;;14.77;8.90;;;11.50;1.00;;;;;;5094275;28;20445;-81
2023/10/25 01:25:26;;;;;;;18.87;8.83;;;11.40;1.00;;;;;;5106769;28;20756;-81
2023/10/25 01:27:51;;;;;;;17.40;9.53;;;11.40;1.00;;;;;;5091943;28;20190;-81
2023/10/25 01:30:17;;;;;;;15.73;8.13;;;11.40;1.00;;;;;;5090797;28;20207;-81
2023/10/25 01:32:43;;;;;;;14.70;8.50;;;11.40;1.00;;;;;;5101077;28;20287;-80
2023/10/25 01:35:08;;;;;;;18.97;9.00;;;11.40;1.00;;;;;;5103314;28;20190;-81
2023/10/25 01:37:34;;;;;;;22.80;8.43;;;11.40;1.00;;;;;;5107655;28;20203;-81
2023/10/25 01:40:00;;;;;;;21.93;8.33;;;11.40;1.00;;;;;;5094766;28;20207;-79
2023/10/25 01:42:25;;;;;;;17.07;8.93;;;11.30;1.00;;;;;;5100569;28;20219;-80
2023/10/25 01:44:51;;;;;;;14.03;8.13;;;11.30;1.00;;;;;;5109320;28;20183;-80
2023/10/25 01:47:16;;;;;;;14.13;8.27;;;11.30;1.00;;;;;;5108442;28;20195;-82
2023/10/25 01:49:43;;;;;;;16.57;8.50;;;11.30;1.00;;;;;;5110584;28;20195;-79
2023/10/25 01:52:08;;;;;;;19.37;8.77;;;11.20;1.00;;;;;;5107152;28;20227;-81
2023/10/25 01:54:35;;;;;;;14.63;8.17;;;11.20;1.00;;;;;;5108244;28;20919;-80
2023/10/25 01:57:00;;;;;;;14.50;9.10;;;11.10;1.00;;;;;;5095838;28;20206;-81
2023/10/25 01:59:26;;;;;;;13.97;8.27;;;11.00;1.00;;;;;;5099465;28;20425;-80
2023/10/25 02:01:51;;;;;;;14.77;7.43;;;11.10;1.00;;;;;;5111633;28;20179;-80
2023/10/25 02:04:17;;;;;;;18.63;8.90;;;11.00;1.00;;;;;;5106845;28;20191;-80
2023/10/25 02:06:43;;;;;;;15.30;7.83;;;10.90;1.00;;;;;;5105318;28;20310;-80
2023/10/25 02:09:08;;;;;;;16.00;8.77;;;10.80;1.00;;;;;;5108382;28;20178;-79
2023/10/25 02:11:34;;;;;;;15.77;8.77;;;10.80;1.00;;;;;;5102595;28;20475;-81
2023/10/25 02:13:59;;;;;;;18.27;7.73;;;10.80;1.00;;;;;;5091653;28;20283;-80
2023/10/25 02:16:26;;;;;;;11.63;7.53;;;10.80;1.00;;;;;;5112151;28;20203;-80
2023/10/25 02:18:51;;;;;;;12.17;7.43;;;10.70;1.00;;;;;;5109994;28;20578;-79
2023/10/25 02:21:17;;;;;;;14.17;7.47;;;10.70;1.00;;;;;;5110793;28;20470;-79
2023/10/25 02:23:42;;;;;;;20.17;8.47;;;10.60;1.00;;;;;;5097652;28;20287;-80
2023/10/25 02:26:08;;;;;;;15.33;7.90;;;10.70;1.00;;;;;;5098826;28;20210;-81
2023/10/25 02:28:34;;;;;;;12.40;7.60;;;10.60;1.00;;;;;;5097167;28;20195;-79
2023/10/25 02:31:00;;;;;;;16.63;7.97;;;10.70;1.00;;;;;;5092193;28;20216;-78
2023/10/25 02:33:26;;;;;;;16.27;7.43;;;10.60;1.00;;;;;;5107628;28;20257;-80
2023/10/25 02:35:52;;;;;;;15.40;7.20;;;10.60;1.00;;;;;;5106008;28;20486;-79
2023/10/25 02:38:18;;;;;;;13.23;7.00;;;10.60;1.00;;;;;;5103807;28;20183;-80
2023/10/25 02:40:43;;;;;;;12.60;7.43;;;10.60;1.00;;;;;;5109578;28;20431;-81
2023/10/25 02:43:09;;;;;;;12.30;6.97;;;10.60;1.00;;;;;;5109611;28;20628;-81
2023/10/25 02:45:34;;;;;;;14.67;7.03;;;10.60;1.00;;;;;;5107289;28;20184;-79
2023/10/25 02:48:00;;;;;;;12.17;7.20;;;10.60;1.00;;;;;;5094171;28;20236;-80
2023/10/25 02:50:25;;;;;;;11.90;6.33;;;10.70;1.00;;;;;;5105814;28;20210;-80
2023/10/25 02:52:51;;;;;;;15.13;7.00;;;10.70;1.00;;;;;;5109180;28;20183;-80
2023/10/25 02:55:16;;;;;;;10.60;6.67;;;10.60;1.00;;;;;;5103013;28;20176;-80
2023/10/25 02:57:43;;;;;;;13.07;6.53;;;10.60;1.00;;;;;;5096075;28;20200;-80
2023/10/25 03:00:10;;;;;;;18.93;6.27;;;10.80;1.00;;;;;;5097058;28;20214;-79
2023/10/25 03:02:36;;;;;;;11.63;7.03;;;10.60;1.00;;;;;;5102654;28;20421;-79
2023/10/25 03:05:02;;;;;;;14.40;7.00;;;10.60;1.00;;;;;;5110546;28;20841;-79
2023/10/25 03:07:28;;;;;;;12.10;7.30;;;10.50;1.00;;;;;;5110386;28;20440;-79
2023/10/25 03:09:53;;;;;;;13.47;7.00;;;10.50;1.00;;;;;;5099188;28;20191;-77
2023/10/25 03:12:19;;;;;;;11.07;6.47;;;10.50;1.00;;;;;;5098294;28;20179;-79
2023/10/25 03:14:44;;;;;;;11.10;7.30;;;10.40;1.00;;;;;;5109551;28;20204;-82
2023/10/25 03:17:10;;;;;;;14.17;7.30;;;10.40;1.00;;;;;;5109475;28;20198;-79
2023/10/25 03:19:35;;;;;;;14.70;7.67;;;10.30;1.00;;;;;;5110005;28;20227;-80
2023/10/25 03:22:02;;;;;;;12.07;7.67;;;10.30;1.00;;;;;;5110228;28;20223;-79
2023/10/25 03:24:29;;;;;;;12.87;7.43;;;10.20;1.00;;;;;;5101703;28;20189;-81
2023/10/25 03:26:55;;;;;;;12.73;7.30;;;10.30;1.00;;;;;;5092171;28;20785;-77
2023/10/25 03:29:21;;;;;;;11.83;6.53;;;10.30;1.00;;;;;;5092174;28;20627;-81
2023/10/25 03:31:46;;;;;;;16.57;7.50;;;12.30;1.00;;;;;;5105363;28;21051;-79
2023/10/25 03:34:14;;;;;;;15.03;7.03;;;10.20;1.00;;;;;;5099054;28;20175;-79
2023/10/25 03:36:40;;;;;;;11.60;6.57;;;10.10;1.00;;;;;;5109218;28;20198;-80
2023/10/25 03:39:05;;;;;;;12.70;6.83;;;10.00;1.00;;;;;;5109039;28;20425;-79
2023/10/25 03:41:31;;;;;;;8.83;6.20;;;10.00;1.00;;;;;;5106658;28;20558;-79
2023/10/25 03:43:56;;;;;;;10.50;6.43;;;9.90;1.00;;;;;;5107256;28;20221;-76
2023/10/25 03:46:22;;;;;;;9.27;6.43;;;9.90;1.00;;;;;;5106920;28;20207;-82
2023/10/25 03:48:48;;;;;;;11.37;7.07;;;9.90;1.00;;;;;;5092428;28;20613;-79
2023/10/25 03:51:14;;;;;;;13.73;7.43;;;9.80;1.00;;;;;;5104482;28;20214;-79
2023/10/25 03:53:40;;;;;;;12.93;6.93;;;9.80;1.00;;;;;;5112907;28;20783;-78
2023/10/25 03:56:06;;;;;;;10.17;6.60;;;9.70;1.00;;;;;;5106520;28;20203;-79
2023/10/25 03:58:32;;;;;;;13.57;6.70;;;9.70;1.00;;;;;;5099445;28;20420;-78
2023/10/25 04:01:02;;;;;;;11.80;7.00;;;9.70;1.00;;;;;;5099622;28;20556;-76
2023/10/25 04:03:28;;;;;;;14.50;7.03;;;9.70;1.00;;;;;;5105921;28;20906;-78
2023/10/25 04:05:54;;;;;;;17.00;7.50;;;9.70;1.00;;;;;;5109042;28;20946;-80
2023/10/25 04:08:20;;;;;;;11.67;6.50;;;9.70;1.00;;;;;;5107248;27;20429;-80
2023/10/25 04:10:53;;;;;;;10.53;6.00;;;9.70;1.00;;;;;;5099613;28;20526;-78
2023/10/25 04:13:20;;;;;;;12.37;6.53;;;9.90;1.00;;;;;;5096441;28;20504;-80
2023/10/25 04:16:01;;;;;;;14.47;6.33;;;9.80;1.00;;;;;;5107058;28;20452;-80
2023/10/25 04:18:29;;;;;;;15.30;6.70;;;9.80;1.00;;;;;;5100208;28;20434;-80
2023/10/25 04:20:56;;;;;;;13.43;6.53;;;9.90;1.00;;;;;;5101837;28;21019;-79
2023/10/25 04:23:23;;;;;;;15.37;7.50;;;9.80;1.00;;;;;;5092227;28;21023;-81
2023/10/25 04:25:49;;;;;;;18.30;9.27;;;9.80;1.00;;;;;;5102058;28;20492;-79
2023/10/25 04:28:14;;;;;;;26.30;11.43;;;9.80;1.00;;;;;;5105033;28;20477;-78
2023/10/25 04:30:40;;;;;;;25.27;9.70;;;9.70;1.00;;;;;;5104727;28;20200;-77
2023/10/25 04:33:06;;;;;;;15.30;7.33;;;9.70;1.00;;;;;;5090042;28;20180;-81
2023/10/25 04:35:32;;;;;;;18.57;8.00;;;9.60;1.00;;;;;;5099131;28;20184;-78
2023/10/25 04:37:57;;;;;;;15.57;7.07;;;9.50;1.00;;;;;;5109052;28;20201;-78
2023/10/25 04:40:23;;;;;;;16.17;8.23;;;9.50;1.00;;;;;;5100019;28;20258;-79
2023/10/25 04:42:50;;;;;;;19.03;10.10;;;9.50;1.00;;;;;;5102050;28;20181;-80
2023/10/25 04:45:16;;;;;;;14.90;8.30;;;9.50;1.00;;;;;;5104798;28;20567;-79
2023/10/25 04:47:41;;;;;;;14.83;7.40;;;9.50;1.00;;;;;;5101906;28;20807;-79
2023/10/25 04:50:07;;;;;;;15.30;6.93;;;9.50;1.00;;;;;;5099025;28;20525;-79
2023/10/25 04:52:33;;;;;;;15.17;7.10;;;9.50;1.00;;;;;;5099305;28;20608;-79
2023/10/25 04:54:59;;;;;;;14.33;7.37;;;9.50;1.00;;;;;;5101831;28;20184;-80
2023/10/25 04:57:24;;;;;;;17.47;7.80;;;9.50;1.00;;;;;;5092860;28;20662;-78
2023/10/25 04:59:50;;;;;;;11.60;6.60;;;9.50;1.00;;;;;;5101503;28;20235;-79
2023/10/25 05:02:16;;;;;;;9.27;5.90;;;9.50;1.00;;;;;;5108342;28;20174;-79
2023/10/25 05:04:42;;;;;;;11.67;5.83;;;9.60;1.00;;;;;;5102634;28;20445;-80
2023/10/25 05:07:08;;;;;;;7.73;5.03;;;9.60;1.00;;;;;;5101740;28;20203;-79
2023/10/25 05:09:34;;;;;;;13.27;6.90;;;9.60;1.00;;;;;;5100883;27;20315;-81
2023/10/25 05:12:03;;;;;;;13.30;5.80;;;9.60;1.00;;;;;;5104611;28;20551;-80
2023/10/25 05:14:30;;;;;;;12.97;6.27;;;9.60;1.00;;;;;;5105091;28;20183;-79
2023/10/25 05:16:56;;;;;;;12.43;5.87;;;9.60;1.00;;;;;;5095154;28;20449;-79
2023/10/25 05:19:22;;;;;;;12.40;6.68;;;9.60;1.00;;;;;;5099879;28;20429;-79
2023/10/25 05:21:50;;;;;;;16.27;7.60;;;9.60;1.00;;;;;;5093994;28;20513;-81
2023/10/25 05:24:17;;;;;;;11.80;5.67;;;9.90;1.00;;;;;;5099146;28;20936;-78
2023/10/25 05:26:43;;;;;;;10.97;5.80;;;9.90;1.00;;;;;;5096677;28;20465;-80
2023/10/25 05:29:09;;;;;;;15.63;6.40;;;10.00;1.00;;;;;;5103140;28;20440;-79
2023/10/25 05:31:41;;;;;;;13.53;5.20;;;10.00;1.00;;;;;;5096273;28;20981;-79
2023/10/25 05:34:08;;;;;;;9.53;4.70;;;10.10;1.00;;;;;;5097337;28;20437;-77
2023/10/25 05:36:34;;;;;;;8.57;5.00;;;10.10;1.00;;;;;;5098827;27;20442;-79
2023/10/25 05:39:00;;;;;;;11.23;5.77;;;10.10;1.00;;;;;;5095163;28;20447;-79
2023/10/25 05:41:29;;;;;;;8.57;5.17;;;10.10;1.00;;;;;;5095658;28;20817;-79
2023/10/25 05:44:10;;;;;;;9.63;4.93;;;10.20;1.00;;;;;;5094864;28;20438;-82
2023/10/25 05:46:35;;;;;;;10.50;5.70;;;10.20;1.00;;;;;;5091112;28;21046;-82
2023/10/25 05:49:01;;;;;;;10.70;5.43;;;10.20;1.00;;;;;;5094634;28;20448;-79
2023/10/25 05:51:27;;;;;;;11.90;5.67;;;10.20;1.00;;;;;;5092181;28;20211;-79
2023/10/25 05:53:53;;;;;;;10.40;5.80;;;10.20;1.00;;;;;;5107301;28;20443;-79
2023/10/25 05:56:19;;;;;;;10.67;5.90;;;10.30;1.00;;;;;;5094052;28;20549;-78
2023/10/25 05:58:46;;;;;;;13.27;6.57;;;10.30;1.00;;;;;;5098870;28;20530;-79
2023/10/25 06:01:11;;;;;;;10.93;5.83;;;10.30;1.00;;;;;;5095879;28;20179;-78
2023/10/25 06:03:41;;;;;;;12.70;6.47;;;10.40;1.00;;;;;;5097379;28;20487;-78
2023/10/25 06:06:11;;;;;;;11.57;6.90;;;10.40;1.00;;;;;;5093914;28;20227;-78
2023/10/25 06:08:37;;;;;;;12.30;6.30;;;10.50;1.00;;;;;;5091306;28;20452;-77
2023/10/25 06:11:04;;;;;;;16.75;7.70;;;10.50;1.00;;;;;;5093961;28;20433;-77
2023/10/25 06:13:29;;;;;;;11.77;6.13;;;10.60;1.00;;;;;;5103864;28;20276;-77
2023/10/25 06:15:55;;;;;;;11.30;5.90;;;10.60;1.00;;;;;;5106559;28;20476;-77
2023/10/25 06:18:21;;;;;;;11.53;5.97;;;10.70;1.00;;;;;;5098032;28;20190;-78
2023/10/25 06:20:46;;;;;;;10.03;5.90;;;10.70;1.00;;;;;;5099058;28;20286;-75
2023/10/25 06:23:12;;;;;;;8.30;5.30;;;10.70;1.00;;;;;;5097266;28;20532;-74
2023/10/25 06:25:37;;;;;;;8.87;5.03;;;10.90;1.00;;;;;;5094501;28;20180;-76
2023/10/25 06:28:04;;;;;;;7.07;5.07;;;10.90;1.00;;;;;;5099850;28;20530;-78
2023/10/25 06:30:30;;;;;;;13.03;5.60;;;11.00;1.00;;;;;;5102417;28;20206;-76
2023/10/25 06:32:58;;;;;;;8.83;5.47;;;11.10;1.00;;;;;;5092688;28;20433;-77
2023/10/25 06:35:24;;;;;;;6.53;4.60;;;12.20;1.00;;;;;;5095422;28;20244;-78
2023/10/25 06:37:50;;;;;;;6.87;4.90;;;11.20;1.00;;;;;;5096998;28;20938;-77
2023/10/25 06:40:15;;;;;;;7.20;4.83;;;11.30;1.00;;;;;;5102666;28;20183;-77
2023/10/25 06:42:41;;;;;;;8.10;4.87;;;11.40;1.00;;;;;;5102098;27;20183;-77
2023/10/25 06:45:08;;;;;;;6.03;3.70;;;11.40;1.00;;;;;;5092814;28;20180;-75
2023/10/25 06:47:34;;;;;;;8.63;5.03;;;11.70;1.00;;;;;;5090244;28;20214;-75
2023/10/25 06:50:00;;;;;;;5.90;4.53;;;11.70;1.00;;;;;;5090337;28;20466;-77
2023/10/25 06:52:25;;;;;;;6.73;5.00;;;11.70;1.00;;;;;;5092450;28;20176;-77
2023/10/25 06:54:51;;;;;;;6.00;4.53;;;11.70;1.00;;;;;;5097840;28;20433;-77
2023/10/25 06:57:17;;;;;;;7.40;4.23;;;11.80;1.00;;;;;;5095800;28;21433;-78
2023/10/25 06:59:43;;;;;;;6.40;4.47;;;11.80;1.00;;;;;;5097215;28;20594;-78
2023/10/25 07:02:22;;;;;;;6.83;5.10;;;11.80;1.00;;;;;;5089841;28;20717;-77
2023/10/25 07:04:54;;;;;;;7.43;4.80;;;11.70;1.00;;;;;;5097605;28;20538;-77
2023/10/25 07:07:23;;;;;;;7.13;4.87;;;11.70;1.00;;;;;;5094333;28;20456;-78
2023/10/25 07:09:48;;;;;;;9.30;4.63;;;11.70;1.00;;;;;;5092362;28;20440;-78
2023/10/25 07:12:14;;;;;;;6.40;4.60;;;11.80;1.00;;;;;;5099150;28;20455;-78
2023/10/25 07:14:42;;;;;;;7.03;4.60;;;11.80;1.00;;;;;;5093782;28;20275;-77
2023/10/25 07:17:07;;;;;;;5.40;3.80;;;11.90;1.00;;;;;;5091820;28;20232;-79
2023/10/25 07:19:33;;;;;;;6.97;4.97;;;12.00;1.00;;;;;;5095002;28;20432;-78
2023/10/25 07:21:58;;;;;;;6.77;5.00;;;12.00;1.00;;;;;;5099671;28;20182;-78
2023/10/25 07:24:24;;;;;;;6.80;4.40;;;12.10;1.00;;;;;;5095942;28;20187;-76
2023/10/25 07:26:49;;;;;;;6.70;4.33;;;12.10;1.00;;;;;;5106548;28;20498;-75
2023/10/25 07:29:14;;;;;;;9.93;5.57;;;12.10;1.00;;;;;;5098311;28;20294;-77
2023/10/25 07:31:40;;;;;;;7.17;4.80;;;12.00;1.00;;;;;;5099327;28;20209;-78
2023/10/25 07:34:06;;;;;;;7.43;5.10;;;12.00;1.00;;;;;;5097530;28;20172;-79
2023/10/25 07:36:31;;;;;;;11.27;5.70;;;11.90;1.00;;;;;;5101610;28;20658;-78
2023/10/25 07:38:57;;;;;;;6.10;4.50;;;11.80;1.00;;;;;;5105332;28;20221;-78
2023/10/25 07:41:22;;;;;;;13.47;5.10;;;11.80;1.00;;;;;;5111939;28;20179;-78
2023/10/25 07:43:48;;;;;;;8.30;5.00;;;11.80;1.00;;;;;;5100402;28;20188;-79
2023/10/25 07:46:13;;;;;;;7.20;4.60;;;11.80;1.00;;;;;;5094064;28;20211;-76
2023/10/25 07:48:40;;;;;;;9.03;4.53;;;11.90;1.00;;;;;;5099528;28;20192;-79
2023/10/25 07:51:05;;;;;;;6.77;4.50;;;11.90;1.00;;;;;;5095520;28;20206;-79
2023/10/25 07:53:31;;;;;;;6.80;5.00;;;12.30;1.00;;;;;;5098653;28;20429;-80
2023/10/25 07:56:00;;;;;;;9.53;5.17;;;12.00;1.00;;;;;;5094887;28;20192;-79
2023/10/25 07:58:27;;;;;;;9.47;4.17;;;12.00;1.00;;;;;;5103172;28;20167;-78
2023/10/25 08:00:53;;;;;;;7.10;4.70;;;12.00;1.00;;;;;;5099659;28;20437;-80
2023/10/25 08:03:18;;;;;;;8.17;4.90;;;12.00;1.00;;;;;;5106929;28;20440;-77
2023/10/25 08:05:44;;;;;;;9.17;5.10;;;12.10;1.00;;;;;;5099267;28;20207;-77
2023/10/25 08:08:09;;;;;;;5.50;4.30;;;12.20;1.00;;;;;;5108285;28;20672;-78
2023/10/25 08:10:35;;;;;;;7.07;4.50;;;12.40;1.00;;;;;;5105676;28;20208;-79
2023/10/25 08:13:00;;;;;;;6.17;4.27;;;12.50;1.00;;;;;;5101715;28;20239;-78
2023/10/25 08:15:26;;;;;;;4.23;3.80;;;12.80;1.00;;;;;;5100977;28;20258;-78
2023/10/25 08:17:54;;;;;;;5.57;4.10;;;12.80;1.00;;;;;;5105419;28;20890;-77
2023/10/25 08:20:20;;;;;;;6.27;3.90;;;13.00;1.00;;;;;;5097085;28;20187;-81
2023/10/25 08:22:45;;;;;;;5.93;3.60;;;13.10;1.00;;;;;;5103946;28;20887;-77
2023/10/25 08:25:11;;;;;;;5.70;3.73;;;13.10;1.00;;;;;;5103993;28;20190;-77
2023/10/25 08:27:36;;;;;;;5.53;3.97;;;13.10;1.00;;;;;;5102630;28;20542;-78
2023/10/25 08:30:03;;;;;;;4.77;3.80;;;13.10;1.00;;;;;;5104163;28;20562;-78
2023/10/25 08:32:29;;;;;;;5.40;3.30;;;13.20;1.00;;;;;;5089919;28;20217;-80
2023/10/25 08:34:54;;;;;;;4.60;3.17;;;13.20;1.00;;;;;;5105523;28;20438;-78
2023/10/25 08:37:20;;;;;;;4.70;3.30;;;13.30;1.00;;;;;;5103369;28;20199;-76
2023/10/25 08:39:45;;;;;;;7.40;4.07;;;13.40;1.00;;;;;;5099975;28;20195;-80
2023/10/25 08:42:12;;;;;;;4.70;3.30;;;13.60;1.00;;;;;;5103869;28;20681;-77
2023/10/25 08:44:40;;;;;;;6.10;3.30;;;13.90;1.00;;;;;;5103477;27;20233;-78
2023/10/25 08:47:08;;;;;;;4.70;3.67;;;14.00;1.00;;;;;;5099210;28;20463;-78
2023/10/25 08:49:34;;;;;;;6.40;3.20;;;13.90;1.00;;;;;;5104950;28;20436;-78
2023/10/25 08:52:01;;;;;;;5.80;3.80;;;13.90;1.00;;;;;;5105482;27;21074;-78
2023/10/25 08:54:28;;;;;;;4.50;3.60;;;14.00;1.00;;;;;;5107268;28;20517;-77
2023/10/25 08:56:54;;;;;;;4.43;3.30;;;13.90;1.00;;;;;;5099632;28;20865;-80
2023/10/25 08:59:20;;;;;;;4.90;3.53;;;13.90;1.00;;;;;;5101729;28;20429;-79
2023/10/25 09:01:45;;;;;;;6.37;3.43;;;13.80;1.00;;;;;;5108082;28;20938;-79
2023/10/25 09:04:11;;;;;;;6.63;3.33;;;13.70;1.00;;;;;;5108191;28;20552;-79
2023/10/25 09:06:36;;;;;;;5.10;3.57;;;13.80;1.00;;;;;;5098447;28;20692;-78
2023/10/25 09:09:05;;;;;;;4.27;3.20;;;13.80;1.00;;;;;;5107906;28;20676;-77
2023/10/25 09:11:44;;;;;;;4.67;3.23;;;13.70;1.00;;;;;;5099407;28;20680;-78
2023/10/25 09:14:12;;;;;;;5.03;3.00;;;13.60;1.00;;;;;;5098021;28;20441;-79
2023/10/25 09:16:42;;;;;;;6.10;2.90;;;13.50;1.00;;;;;;5097753;28;20441;-77
2023/10/25 09:19:08;;;;;;;4.90;3.20;;;13.40;1.00;;;;;;5098072;28;20426;-77
2023/10/25 09:21:34;;;;;;;4.63;2.60;;;13.40;1.00;;;;;;5095330;28;20433;-79
2023/10/25 09:24:02;;;;;;;4.93;3.10;;;13.30;1.00;;;;;;5100055;28;20225;-77
2023/10/25 09:26:34;;;;;;;6.17;3.07;;;13.30;1.00;;;;;;5093017;28;20211;-77
2023/10/25 09:28:59;;;;;;;4.47;2.80;;;13.30;1.00;;;;;;5105793;28;20456;-78
2023/10/25 09:31:28;;;;;;;8.07;4.50;;;13.30;1.00;;;;;;5098987;28;20457;-77
2023/10/25 09:33:56;;;;;;;4.77;3.10;;;13.40;1.00;;;;;;5096376;28;20176;-78
2023/10/25 09:36:22;;;;;;;4.40;2.87;;;13.40;1.00;;;;;;5093015;28;20461;-77
2023/10/25 09:38:50;;;;;;;3.63;3.00;;;13.50;1.00;;;;;;5109252;28;20833;-77
2023/10/25 09:41:17;;;;;;;6.40;3.07;;;13.50;1.00;;;;;;5112271;28;20185;-76
2023/10/25 09:43:58;;;;;;;4.10;2.73;;;13.50;1.00;;;;;;5110400;28;20945;-77
2023/10/25 09:46:30;;;;;;;3.67;2.77;;;13.50;1.00;;;;;;5100774;28;20532;-77
2023/10/25 09:49:06;;;;;;;4.13;2.83;;;13.50;1.00;;;;;;5112296;28;20408;-78
2023/10/25 09:52:08;;;;;;;4.70;3.13;;;13.40;1.00;;;;;;5111413;28;20452;-76
2023/10/25 09:54:42;;;;;;;2.43;2.23;;;13.30;1.00;;;;;;5085177;28;20424;-76
2023/10/25 09:57:09;;;;;;;6.77;3.47;;;13.30;1.00;;;;;;5103634;28;20432;-77
2023/10/25 09:59:37;;;;;;;4.87;3.70;;;13.20;1.00;;;;;;5111244;28;20495;-77
2023/10/25 10:02:10;;;;;;;5.50;3.40;;;13.30;1.00;;;;;;5112126;28;20795;-78
2023/10/25 10:04:42;;;;;;;4.60;2.67;;;13.30;1.00;;;;;;5111553;28;20559;-77
2023/10/25 10:07:21;;;;;;;3.70;3.10;;;13.30;1.00;;;;;;5111660;28;20946;-78
2023/10/25 10:09:58;;;;;;;3.67;2.90;;;13.30;1.00;;;;;;5107944;28;20671;-77
2023/10/25 10:12:23;;;;;;;4.57;2.77;;;13.30;1.00;;;;;;5111280;28;20472;-77
2023/10/25 10:14:49;;;;;;;3.77;2.57;;;13.30;1.00;;;;;;5091891;28;20437;-78
2023/10/25 10:17:16;;;;;;;3.33;2.77;;;13.30;1.00;;;;;;5093422;28;20286;-77
2023/10/25 10:19:50;;;;;;;3.33;2.73;;;13.30;1.00;;;;;;5111007;28;20175;-79
2023/10/25 10:22:18;;;;;;;5.37;3.07;;;13.30;1.00;;;;;;5111242;28;20425;-80
2023/10/25 10:25:00;;;;;;;6.00;2.70;;;13.50;1.00;;;;;;5110606;28;20425;-79
2023/10/25 10:27:40;;;;;;;4.20;2.67;;;13.60;1.00;;;;;;5095604;28;20850;-78
2023/10/25 10:30:37;;;;;;;3.53;2.63;;;13.70;1.00;;;;;;5090348;28;20434;-79
2023/10/25 10:33:04;;;;;;;3.13;2.30;;;13.70;1.00;;;;;;5090907;28;20921;-77
2023/10/25 10:35:30;;;;;;;3.73;2.40;;;13.60;1.00;;;;;;5090746;28;20879;-77
2023/10/25 10:37:56;;;;;;;4.20;2.50;;;13.60;1.00;;;;;;5090248;28;20422;-77
2023/10/25 10:40:22;;;;;;;5.30;2.60;;;13.60;1.00;;;;;;5090859;28;20422;-77
2023/10/25 10:42:47;;;;;;;3.13;2.43;;;13.60;1.00;;;;;;5090347;28;20961;-77
2023/10/25 10:45:15;;;;;;;3.93;2.63;;;13.50;1.00;;;;;;5091271;28;20191;-78
2023/10/25 10:47:57;;;;;;;3.60;2.60;;;13.50;1.00;;;;;;5105023;28;20191;-77
2023/10/25 10:50:25;;;;;;;5.77;2.97;;;13.50;1.00;;;;;;5110296;28;20460;-78
2023/10/25 10:52:52;;;;;;;5.00;3.30;;;13.50;1.00;;;;;;5091254;28;20425;-77
2023/10/25 10:55:22;;;;;;;3.20;2.67;;;13.60;1.00;;;;;;5094905;28;20418;-78
2023/10/25 10:57:48;;;;;;;4.17;2.63;;;13.40;1.00;;;;;;5099792;28;20444;-78
2023/10/25 11:00:16;;;;;;;4.40;2.70;;;13.40;1.00;;;;;;5110504;28;20854;-77
2023/10/25 11:02:46;;;;;;;4.80;3.10;;;13.40;1.00;;;;;;5108970;28;20436;-77
2023/10/25 11:05:16;;;;;;;8.93;2.93;;;13.50;1.00;;;;;;5110611;28;20517;-78
2023/10/25 11:07:42;;;;;;;3.13;2.50;;;13.60;1.00;;;;;;5110281;28;20601;-78
2023/10/25 11:10:10;;;;;;;7.00;2.57;;;13.60;1.00;;;;;;5110534;28;20926;-78
2023/10/25 11:12:36;;;;;;;4.57;3.03;;;13.70;1.00;;;;;;5110304;28;20440;-78
2023/10/25 11:15:04;;;;;;;4.43;2.47;;;13.90;1.00;;;;;;5090314;28;21019;-77
2023/10/25 11:17:30;;;;;;;6.50;2.90;;;13.80;1.00;;;;;;5096599;28;20811;-78
2023/10/25 11:19:56;;;;;;;4.30;3.00;;;13.70;1.00;;;;;;5089722;28;20533;-77
2023/10/25 11:22:22;;;;;;;7.50;3.30;;;13.60;1.00;;;;;;5088672;28;20474;-77
2023/10/25 11:24:50;;;;;;;4.47;3.10;;;13.60;1.00;;;;;;5094744;28;20187;-78
2023/10/25 11:27:16;;;;;;;4.30;3.10;;;13.60;1.00;;;;;;5089375;28;20458;-78
2023/10/25 11:29:41;;;;;;;5.40;3.07;;;13.60;1.00;;;;;;5092173;28;20432;-77
2023/10/25 11:32:11;;;;;;;9.33;2.93;;;13.60;1.00;;;;;;5089565;28;20601;-77
2023/10/25 11:34:41;;;;;;;5.30;3.00;;;13.60;1.00;;;;;;5088684;28;20274;-78
2023/10/25 11:37:07;;;;;;;5.43;3.10;;;13.70;1.00;;;;;;5090183;28;20444;-79
2023/10/25 11:40:02;;;;;;;4.73;2.73;;;13.80;1.00;;;;;;5089465;28;20413;-77
2023/10/25 11:42:32;;;;;;;4.93;2.80;;;13.80;1.00;;;;;;5089827;28;20973;-77
2023/10/25 11:45:03;;;;;;;4.23;3.30;;;13.80;1.00;;;;;;5089640;28;20456;-78
2023/10/25 11:47:30;;;;;;;6.30;2.80;;;13.90;1.00;;;;;;5089584;28;20519;-77
2023/10/25 11:49:58;;;;;;;7.63;3.10;;;13.90;1.00;;;;;;5089243;28;20410;-80
2023/10/25 11:52:26;;;;;;;6.80;3.30;;;13.80;1.00;;;;;;5089971;28;20430;-78
2023/10/25 11:54:56;;;;;;;5.67;3.00;;;13.90;1.00;;;;;;5096487;28;20453;-77
2023/10/25 11:57:26;;;;;;;3.93;3.00;;;13.90;1.00;;;;;;5104776;28;20442;-77
2023/10/25 11:59:52;;;;;;;8.03;3.30;;;13.90;1.00;;;;;;5089507;28;20903;-78
2023/10/25 12:02:23;;;;;;;4.90;3.00;;;14.00;1.00;;;;;;5089896;28;20426;-77
2023/10/25 12:04:53;;;;;;;4.17;2.80;;;14.20;1.00;;;;;;5107298;28;20194;-78
2023/10/25 12:07:21;;;;;;;5.67;3.57;;;14.20;1.00;;;;;;5113125;28;20638;-77
2023/10/25 12:09:47;;;;;;;6.20;3.10;;;14.20;1.00;;;;;;5109636;28;20643;-80
2023/10/25 12:12:13;;;;;;;3.90;3.03;;;14.30;1.00;;;;;;5093527;28;20465;-80
2023/10/25 12:14:38;;;;;;;5.50;3.07;;;14.30;1.00;;;;;;5100703;28;20415;-76
2023/10/25 12:17:06;;;;;;;3.60;3.03;;;14.40;1.00;;;;;;5110221;28;20203;-77
2023/10/25 12:19:32;;;;;;;4.97;3.20;;;14.30;1.00;;;;;;5093034;28;20591;-78
2023/10/25 12:21:57;;;;;;;4.53;3.17;;;14.40;1.00;;;;;;5092598;28;20436;-76
2023/10/25 12:24:26;;;;;;;3.30;2.80;;;14.50;1.00;;;;;;5092871;28;20425;-80
2023/10/25 12:26:52;;;;;;;6.20;3.20;;;14.40;1.00;;;;;;5100771;28;20264;-77
2023/10/25 12:29:18;;;;;;;3.63;2.80;;;14.30;1.00;;;;;;5091457;28;20442;-78
2023/10/25 12:31:44;;;;;;;4.27;3.10;;;14.30;1.00;;;;;;5092640;28;20457;-77
2023/10/25 12:34:10;;;;;;;4.03;2.70;;;14.20;1.00;;;;;;5092429;28;20934;-77
2023/10/25 12:36:35;;;;;;;4.10;3.27;;;14.20;1.00;;;;;;5099704;28;20237;-80
2023/10/25 12:39:01;;;;;;;5.30;2.97;;;14.10;1.00;;;;;;5101626;28;20218;-77
2023/10/25 12:41:26;;;;;;;4.97;3.03;;;14.10;1.00;;;;;;5092122;28;20186;-77
2023/10/25 12:43:52;;;;;;;8.63;2.97;;;14.20;1.00;;;;;;5091964;28;20191;-78
2023/10/25 12:46:17;;;;;;;4.50;3.00;;;14.20;1.00;;;;;;5104429;28;20305;-77
2023/10/25 12:48:43;;;;;;;4.47;2.50;;;14.20;1.00;;;;;;5112472;27;20183;-78
2023/10/25 12:51:08;;;;;;;6.83;3.40;;;14.10;1.00;;;;;;5110157;28;20198;-78
2023/10/25 12:53:34;;;;;;;4.67;2.60;;;13.90;1.00;;;;;;5112251;28;20568;-77